• Join FlightAware (Why Join?)
  • Login
  • US Flag 
02:20AM EDT


 

Airport Tracker/Info


-or-


 

Live Flight TrackerFlight Track Log ✈ AWE1940 ✈ 16-Jun-2013 ✈ KIAH - KBHM

Flight Track Log - Related Links

Times and Time Zones

All times are in EDT time to prevent confusion due to time zone crossing. See the AWE1940 flight status page for this flight to view local times or setup timezone preferences in your user account.

Time Position Orientation Groundspeed Altitude Reporting Facility
EDT Latitude Longitude Course Direction KTS MPH feet Rate Location/Type
06:40PM 29.9614 -95.3411 90° East 176 203 700  Level Houston Center
06:41PM 29.9281 -95.2969 131° Southeast 221 254 2,400 1,800 Climbing Houston Center
06:42PM 29.9097 -95.2706 129° Southeast 216 249 3,500 1,560 Climbing Houston Center
06:42PM 29.8825 -95.2350 131° Southeast 271 312 4,000 480 Climbing Houston Center
06:43PM 29.9834 -94.9359 90° East  Level FlightAware Approximate
06:43PM 29.8614 -95.2028 127° Southeast 264 304 4,000  Level Houston Center
06:43PM 29.8342 -95.1664 131° Southeast 271 312 4,100 1,020 Climbing Houston Center
06:44PM 29.9834 -94.8034 90° East  Level FlightAware Approximate
06:44PM 29.8131 -95.1344 127° Southeast 273 314 5,100  Level Houston Center
06:45PM 29.9833 -94.6710 90° East  Level FlightAware Approximate
06:45PM 29.7906 -95.0333 104° East 291 335 8,700  Level Houston Center
06:46PM 29.8169 -94.9414 72° East 298 343 10,700 1,500 Climbing Houston Center
06:47PM 29.8489 -94.8319 71° East 348 400 11,800 1,620 Climbing Houston Center
06:48PM 29.8831 -94.7106 72° East 387 445 14,100 2,040 Climbing Houston Center
06:49PM 29.9181 -94.5833 72° East 407 468 16,100 1,920 Climbing Houston Center
06:50PM 29.9556 -94.4492 72° East 421 484 18,100 1,740 Climbing Houston Center
06:51PM 29.9947 -94.3158 71° East 435 501 19,700 1,560 Climbing Houston Center
06:52PM 30.0156 -94.1703 81° East 456 525 21,300 1,800 Climbing Houston Center
06:53PM 30.0364 -93.9961 82° East 461 531 23,500 1,740 Climbing Houston Center
06:54PM 30.0544 -93.8494 82° East 464 534 24,900 720 Climbing Houston Center
06:55PM 30.0706 -93.7069 83° East 458 527 25,000  Climbing Houston Center
06:56PM 30.0878 -93.5644 82° East 448 516 25,000  Level Houston Center
06:57PM 30.1206 -93.4317 74° East 453 521 25,000  Level Houston Center
06:58PM 30.1983 -93.2856 58° Northeast 451 519 25,000  Level Houston Center
06:59PM 30.2608 -93.1647 59° Northeast 445 512 25,000  Level Houston Center
07:00PM 30.3225 -93.0400 60° Northeast 449 517 25,000  Level Houston Center
07:01PM 30.3858 -92.9158 59° Northeast 450 518 25,000  Level Houston Center
07:02PM 30.4508 -92.7917 59° Northeast 453 521 25,000  Level Houston Center
07:03PM 30.5147 -92.6656 60° Northeast 455 524 25,000  Level Houston Center
07:04PM 30.5869 -92.5228 60° Northeast 453 521 25,000  Level Houston Center
07:05PM 30.6500 -92.3961 60° Northeast 456 525 25,000  Level Houston Center
07:06PM 30.7139 -92.2706 59° Northeast 455 524 25,000  Level Houston Center
07:07PM 30.7892 -92.1200 60° Northeast 453 521 25,000  Level Houston Center
07:08PM 30.8522 -91.9933 60° Northeast 456 525 25,000  Level Houston Center
07:10PM 30.9164 -91.8661 60° Northeast 458 527 25,000  Level Houston Center
07:11PM 30.9778 -91.7408 60° Northeast 450 518 25,000  Level Houston Center
07:12PM 31.0403 -91.6142 60° Northeast 453 521 25,000 -60 Level Houston Center
07:13PM 31.1156 -91.4633 60° Northeast 451 519 24,900  Descending Houston Center
07:14PM 31.1675 -91.3556 61° Northeast 401 461 25,000  Climbing Houston Center
07:15PM 31.2214 -91.2444 60° Northeast 394 453 25,000  Level Houston Center
07:16PM 31.2783 -91.1303 60° Northeast 396 456 25,000  Level Houston Center
07:17PM 31.3347 -91.0114 61° Northeast 422 486 25,000  Level Houston Center
07:18PM 31.3967 -90.8858 60° Northeast 440 506 25,000  Level Houston Center
07:19PM 31.4692 -90.7364 60° Northeast 439 505 25,000  Level Houston Center
07:20PM 31.5300 -90.6056 61° Northeast 449 517 25,000  Level Houston Center
07:21PM 31.5783 -90.4625 68° East 468 539 25,000  Level Houston Center
07:22PM 31.6225 -90.3283 69° East 453 521 25,000  Level Houston Center
07:23PM 31.6672 -90.1967 68° East 438 504 25,000  Level Houston Center
07:24PM 31.7228 -90.0633 64° Northeast 453 521 25,000  Level Houston Center
07:25PM 31.7906 -89.9378 58° Northeast 456 525 25,000  Level Houston Center
07:26PM 31.8633 -89.7992 58° Northeast 456 525 25,000  Level Houston Center
07:27PM 31.9103 -89.7089 58° Northeast 451 519 25,000  Level Memphis Center
07:28PM 31.9783 -89.5833 57° Northeast 451 519 25,000  Level Memphis Center
07:29PM 32.0444 -89.4531 59° Northeast 451 519 25,000 -240 Level Memphis Center
07:30PM 32.0975 -89.3175 65° Northeast 451 519 24,600 -540 Descending Memphis Center
07:31PM 32.1422 -89.1844 68° East 439 505 24,000 -300 Descending Memphis Center
07:32PM 32.1911 -89.0464 67° East 439 505 24,000 -180 Level Memphis Center
07:33PM 32.2544 -88.9228 59° Northeast 434 499 23,700 -660 Descending Memphis Center
07:34PM 32.3261 -88.8111 53° Northeast 434 499 22,700 -1,680 Descending Memphis Center
07:35PM 32.4019 -88.6939 53° Northeast 434 499 20,400 -2,220 Descending Memphis Center
07:36PM 32.4692 -88.5844 54° Northeast 428 493 18,300 -2,400 Descending Memphis Center
07:37PM 32.5325 -88.4822 54° Northeast 416 479 15,700 -1,560 Descending Memphis Center
07:39PM 32.6856 -88.2342 54° Northeast 434 499 13,400 -1,020 Descending Atlanta Center
07:40PM 32.7456 -88.1261 57° Northeast 434 499 12,600 -900 Descending Atlanta Center
07:41PM 32.8097 -88.0128 56° Northeast 424 488 11,600 -840 Descending Atlanta Center
07:42PM 32.8756 -87.9094 53° Northeast 407 468 11,000 -300 Descending Atlanta Center
07:43PM 32.9414 -87.8061 53° Northeast 394 453 11,000  Level Atlanta Center
07:44PM 32.9964 -87.7167 54° Northeast 394 453 11,000  Level Atlanta Center
07:45PM 33.0647 -87.5931 57° Northeast 394 453 11,000  Level Atlanta Center
07:46PM 33.1303 -87.4867 54° Northeast 394 453 11,000 -60 Level Atlanta Center
07:47PM 33.2019 -87.3853 50° Northeast 394 453 10,900 -900 Descending Atlanta Center
07:47PM 33.2281 -87.3442 53° Northeast 394 453 9,900 -1,920 Descending Atlanta Center
07:48PM 33.2550 -87.2756 65° Northeast 386 444 9,000 -1,860 Descending Atlanta Center
07:48PM 33.2811 -87.2319 54° Northeast 343 395 7,900 -1,920 Descending Atlanta Center
07:49PM 33.3094 -87.1856 54° Northeast 357 411 7,100 -1,800 Descending Atlanta Center
07:49PM 33.3375 -87.1519 45° Northeast 309 356 6,100 -1,740 Descending Atlanta Center
07:50PM 33.3639 -87.1031 57° Northeast 331 381 5,400 -1,680 Descending Atlanta Center
07:50PM 33.3833 -87.0664 58° Northeast 302 348 4,400 -1,740 Descending Atlanta Center
07:51PM 33.4075 -87.0225 57° Northeast 305 351 3,700 -1,560 Descending Atlanta Center
07:51PM 33.4292 -86.9883 53° Northeast 300 345 3,000 -840 Descending Atlanta Center
07:52PM 33.4597 -86.9372 54° Northeast 292 336 2,900  Descending Atlanta Center
07:52PM 33.4683 -86.9200 59° Northeast 252 290 3,000 -300 Climbing Atlanta Center
07:53PM 33.4967 -86.8736 54° Northeast 261 300 2,600 -900 Descending Atlanta Center
07:53PM 33.5075 -86.8542 56° Northeast 220 253 2,100 -1,080 Descending Atlanta Center
07:54PM 33.5378 -86.8003 56° Northeast 174 200 1,200 -900 Descending Atlanta Center
07:56PM 33.5500 -86.7500 51° Northeast  Level FlightAware Approximate
08:03PM 33.5639 -86.7523 51° Northeast  Level Estimated